Time;durP1;ratioP1;P1;durP2;ratioP2;P2;SDS_P1;SDS_P2;PMS_P1;PMS_P2;Temp;Humidity;BMP_temperature;BMP_pressure;BME280_temperature;BME280_humidity;BME280_pressure;Samples;Min_cycle;Max_cycle;Signal;HPM_P1;HPM_P2
2023/12/27 00:01:38;;;;;;;0.80;0.50;;;7.70;99.90;;;;;;5016815;28;20505;-75
2023/12/27 00:04:05;;;;;;;1.00;0.57;;;7.70;99.90;;;;;;5024277;28;20549;-81
2023/12/27 00:06:32;;;;;;;0.70;0.50;;;7.60;99.90;;;;;;5008310;28;20493;-75
2023/12/27 00:09:00;;;;;;;0.50;0.40;;;7.60;99.90;;;;;;5008978;28;20678;-75
2023/12/27 00:11:29;;;;;;;1.40;0.50;;;7.60;99.90;;;;;;5014005;28;20449;-75
2023/12/27 00:13:56;;;;;;;0.60;0.40;;;7.60;99.90;;;;;;5004535;28;20484;-78
2023/12/27 00:16:23;;;;;;;1.33;0.40;;;7.70;99.90;;;;;;5009699;28;20519;-76
2023/12/27 00:18:50;;;;;;;0.60;0.57;;;7.60;99.90;;;;;;5001997;28;20496;-75
2023/12/27 00:21:17;;;;;;;2.70;1.33;;;7.60;99.90;;;;;;5004490;28;20475;-77
2023/12/27 00:23:44;;;;;;;1.80;0.47;;;7.60;99.90;;;;;;5007390;28;20448;-75
2023/12/27 00:26:11;;;;;;;1.13;0.43;;;7.70;99.90;;;;;;5004047;28;20461;-75
2023/12/27 00:28:39;;;;;;;0.90;0.90;;;7.60;99.90;;;;;;5005258;28;20897;-75
2023/12/27 00:31:06;;;;;;;1.37;0.50;;;7.70;99.90;;;;;;5002442;28;20509;-76
2023/12/27 00:33:33;;;;;;;0.53;0.30;;;7.60;99.90;;;;;;5017182;28;20451;-77
2023/12/27 00:36:00;;;;;;;0.60;0.40;;;7.60;99.90;;;;;;5020303;28;20983;-76
2023/12/27 00:38:27;;;;;;;0.50;0.40;;;7.60;99.90;;;;;;5009853;28;20550;-76
2023/12/27 00:40:54;;;;;;;0.60;0.40;;;7.70;99.90;;;;;;5003893;28;20469;-75
2023/12/27 00:43:21;;;;;;;0.40;0.40;;;7.60;99.90;;;;;;5020157;28;20461;-76
2023/12/27 00:45:49;;;;;;;1.53;0.47;;;7.60;99.90;;;;;;5002931;28;20847;-79
2023/12/27 00:48:16;;;;;;;1.37;0.60;;;7.60;99.90;;;;;;5018915;28;20483;-76
2023/12/27 00:50:43;;;;;;;2.57;0.50;;;7.60;99.90;;;;;;5005664;28;20491;-77
2023/12/27 00:53:10;;;;;;;2.07;0.50;;;7.60;99.90;;;;;;5001939;28;20604;-75
2023/12/27 00:55:37;;;;;;;1.70;0.40;;;7.60;99.90;;;;;;5006920;28;20442;-75
2023/12/27 00:58:04;;;;;;;0.80;0.40;;;7.60;99.90;;;;;;5002788;28;20506;-76
2023/12/27 01:00:31;;;;;;;0.47;0.40;;;7.60;99.90;;;;;;5012436;28;20461;-75
2023/12/27 01:02:59;;;;;;;1.00;0.50;;;7.60;99.90;;;;;;5000138;28;20909;-75
2023/12/27 01:05:26;;;;;;;3.37;0.90;;;7.70;99.90;;;;;;5016462;28;20862;-75
2023/12/27 01:07:53;;;;;;;0.90;0.50;;;7.60;99.90;;;;;;5001237;28;20591;-75
2023/12/27 01:10:20;;;;;;;1.13;0.40;;;7.60;99.90;;;;;;5002617;28;20587;-78
2023/12/27 01:12:48;;;;;;;0.70;0.47;;;7.60;99.90;;;;;;5010493;28;20477;-76
2023/12/27 01:15:16;;;;;;;0.50;0.50;;;7.60;99.90;;;;;;5010947;28;20490;-76
2023/12/27 01:17:44;;;;;;;0.50;0.33;;;7.60;99.90;;;;;;5011737;28;20483;-77
2023/12/27 01:20:12;;;;;;;1.00;0.60;;;7.60;99.90;;;;;;5006206;28;20602;-75
2023/12/27 01:22:39;;;;;;;1.37;0.40;;;7.70;99.90;;;;;;5012139;28;20562;-75
2023/12/27 01:25:07;;;;;;;0.50;0.40;;;7.60;99.90;;;;;;5006159;28;20445;-74
2023/12/27 01:27:33;;;;;;;0.40;0.30;;;7.60;99.90;;;;;;5010955;28;20480;-75
2023/12/27 01:30:00;;;;;;;0.90;0.47;;;7.60;99.90;;;;;;5003721;28;20513;-74
2023/12/27 01:32:27;;;;;;;5.77;0.50;;;7.60;99.90;;;;;;5004800;28;20458;-78
2023/12/27 01:34:54;;;;;;;0.90;0.40;;;7.60;99.90;;;;;;5005498;28;20513;-76
2023/12/27 01:37:23;;;;;;;0.67;0.40;;;7.60;99.90;;;;;;5003841;28;20461;-78
2023/12/27 01:39:50;;;;;;;1.40;0.60;;;7.60;99.90;;;;;;5003678;28;20575;-78
2023/12/27 01:42:17;;;;;;;0.70;0.40;;;7.60;99.90;;;;;;5003379;28;20878;-76
2023/12/27 01:44:43;;;;;;;0.50;0.47;;;7.60;99.90;;;;;;5004178;28;20453;-75
2023/12/27 01:47:13;;;;;;;2.90;0.40;;;7.60;99.90;;;;;;4998317;28;20478;-78
2023/12/27 01:49:40;;;;;;;0.90;0.70;;;7.60;99.90;;;;;;5004313;28;20493;-75
2023/12/27 01:52:09;;;;;;;1.40;0.40;;;7.50;99.90;;;;;;5011350;28;20990;-75
2023/12/27 01:54:38;;;;;;;0.50;0.40;;;7.50;99.90;;;;;;5022883;28;20543;-75
2023/12/27 01:57:06;;;;;;;0.60;0.50;;;7.60;99.90;;;;;;5027945;28;20567;-75
2023/12/27 01:59:33;;;;;;;2.63;0.90;;;7.50;99.90;;;;;;5012020;28;20459;-75
2023/12/27 02:02:00;;;;;;;1.53;0.70;;;7.60;99.90;;;;;;5004674;28;20532;-78
2023/12/27 02:04:27;;;;;;;1.33;0.50;;;7.60;99.90;;;;;;5021917;28;20501;-75
2023/12/27 02:06:55;;;;;;;1.90;0.43;;;7.50;99.90;;;;;;5002634;28;20491;-75
2023/12/27 02:09:22;;;;;;;0.50;0.33;;;7.50;99.90;;;;;;4997759;28;21324;-77
2023/12/27 02:11:51;;;;;;;0.70;0.40;;;7.50;99.90;;;;;;5006354;28;20518;-75
2023/12/27 02:14:18;;;;;;;4.47;1.07;;;7.50;99.90;;;;;;5006927;28;20480;-75
2023/12/27 02:16:44;;;;;;;0.67;0.50;;;7.50;99.90;;;;;;5011584;28;20485;-76
2023/12/27 02:19:17;;;;;;;3.43;0.87;;;7.40;99.90;;;;;;4999602;28;20871;-75
2023/12/27 02:21:44;;;;;;;0.90;0.43;;;7.40;99.90;;;;;;5001941;28;20548;-76
2023/12/27 02:24:15;;;;;;;0.67;0.40;;;7.40;99.90;;;;;;5002213;28;20483;-76
2023/12/27 02:26:44;;;;;;;0.50;0.50;;;7.40;99.90;;;;;;5000123;28;20511;-75
2023/12/27 02:29:11;;;;;;;2.73;0.40;;;7.40;99.90;;;;;;5000621;28;20821;-76
2023/12/27 02:31:38;;;;;;;0.80;0.40;;;7.40;99.90;;;;;;4998198;28;20510;-77
2023/12/27 02:34:05;;;;;;;0.50;0.30;;;7.40;99.90;;;;;;5007032;28;20511;-76
2023/12/27 02:36:31;;;;;;;0.83;0.40;;;7.30;99.90;;;;;;5002017;28;20531;-76
2023/12/27 02:38:58;;;;;;;1.13;0.40;;;7.30;99.90;;;;;;5011786;28;20478;-75
2023/12/27 02:41:25;;;;;;;2.77;0.60;;;7.30;99.90;;;;;;5025388;28;20525;-76
2023/12/27 02:43:54;;;;;;;0.43;0.30;;;7.30;99.90;;;;;;5085785;28;20460;-76
2023/12/27 02:46:21;;;;;;;1.07;0.40;;;7.30;99.90;;;;;;5029505;28;20893;-77
2023/12/27 02:48:47;;;;;;;0.93;0.37;;;7.30;99.90;;;;;;5037558;28;20553;-79
2023/12/27 02:51:14;;;;;;;0.40;0.30;;;7.30;99.90;;;;;;5025285;28;20901;-76
2023/12/27 02:53:41;;;;;;;1.90;0.57;;;7.30;99.90;;;;;;4998196;28;20465;-76
2023/12/27 02:56:09;;;;;;;0.50;0.30;;;7.30;99.90;;;;;;5055554;28;20932;-78
2023/12/27 02:58:39;;;;;;;0.80;0.40;;;7.30;99.90;;;;;;5078762;28;21022;-76
2023/12/27 03:01:08;;;;;;;0.40;0.30;;;7.30;99.90;;;;;;5048494;28;20543;-76
2023/12/27 03:03:35;;;;;;;0.50;0.40;;;7.30;99.90;;;;;;5072192;28;21332;-79
2023/12/27 03:06:01;;;;;;;1.73;0.37;;;7.30;99.90;;;;;;5056356;28;20447;-76
2023/12/27 03:08:28;;;;;;;2.27;0.40;;;7.30;99.90;;;;;;5035709;28;20545;-76
2023/12/27 03:10:56;;;;;;;0.80;0.40;;;7.30;99.90;;;;;;5045903;28;20488;-76
2023/12/27 03:13:23;;;;;;;0.50;0.33;;;7.30;99.90;;;;;;5023805;28;20552;-76
2023/12/27 03:15:50;;;;;;;0.50;0.40;;;7.20;99.90;;;;;;5024240;28;20484;-76
2023/12/27 03:18:21;;;;;;;0.40;0.23;;;7.20;99.90;;;;;;5005475;28;20484;-78
2023/12/27 03:20:48;;;;;;;0.47;0.30;;;7.30;99.90;;;;;;5076046;28;20451;-77
2023/12/27 03:23:16;;;;;;;0.60;0.33;;;7.30;99.90;;;;;;5014245;28;20475;-76
2023/12/27 03:25:43;;;;;;;0.53;0.40;;;7.30;99.90;;;;;;5027600;28;20537;-77
2023/12/27 03:28:09;;;;;;;0.50;0.27;;;7.20;99.90;;;;;;5028403;28;20535;-78
2023/12/27 03:30:36;;;;;;;1.27;0.30;;;7.20;99.90;;;;;;5024750;28;20521;-75
2023/12/27 03:33:04;;;;;;;1.40;0.30;;;7.30;99.90;;;;;;5005025;28;20525;-78
2023/12/27 03:35:32;;;;;;;1.97;0.27;;;7.20;99.90;;;;;;5013062;28;20477;-75
2023/12/27 03:37:59;;;;;;;0.60;0.30;;;7.20;99.90;;;;;;5019860;28;20560;-76
2023/12/27 03:40:26;;;;;;;0.73;0.30;;;7.20;99.90;;;;;;5009326;28;20492;-78
2023/12/27 03:42:53;;;;;;;0.47;0.30;;;7.20;99.90;;;;;;5004880;28;21167;-77
2023/12/27 03:45:20;;;;;;;0.40;0.30;;;7.10;99.90;;;;;;5005485;28;20499;-76
2023/12/27 03:47:47;;;;;;;1.97;0.33;;;7.10;99.90;;;;;;5008476;28;20575;-76
2023/12/27 03:50:14;;;;;;;0.43;0.30;;;7.10;99.90;;;;;;5012560;28;20488;-76
2023/12/27 03:52:44;;;;;;;0.40;0.30;;;7.20;99.90;;;;;;5031942;28;20527;-76
2023/12/27 03:55:11;;;;;;;0.70;0.37;;;7.20;99.90;;;;;;5008898;28;20505;-76
2023/12/27 03:57:38;;;;;;;3.43;0.30;;;7.20;99.90;;;;;;5000610;28;20523;-76
2023/12/27 04:00:06;;;;;;;0.40;0.30;;;7.20;99.90;;;;;;5008446;28;20546;-76
2023/12/27 04:02:33;;;;;;;0.60;0.30;;;7.30;99.90;;;;;;5011148;28;20535;-77
2023/12/27 04:05:00;;;;;;;0.43;0.30;;;7.20;99.90;;;;;;5026415;28;20917;-75
2023/12/27 04:07:33;;;;;;;1.37;0.40;;;7.20;99.90;;;;;;5006238;28;20467;-78
2023/12/27 04:10:01;;;;;;;0.40;0.30;;;7.20;99.90;;;;;;5002483;28;20469;-76
2023/12/27 04:12:28;;;;;;;0.50;0.40;;;7.10;99.90;;;;;;5006684;28;20439;-76
2023/12/27 04:14:55;;;;;;;0.50;0.30;;;7.10;99.90;;;;;;5005973;28;21075;-76
2023/12/27 04:17:22;;;;;;;0.50;0.40;;;7.10;99.90;;;;;;5005232;28;20524;-75
2023/12/27 04:19:49;;;;;;;0.40;0.30;;;7.10;99.90;;;;;;5001821;28;20533;-79
2023/12/27 04:22:16;;;;;;;0.60;0.40;;;7.00;99.90;;;;;;5007616;28;20928;-75
2023/12/27 04:24:43;;;;;;;0.40;0.30;;;7.00;99.90;;;;;;5006665;28;20454;-75
2023/12/27 04:27:11;;;;;;;0.90;0.40;;;7.00;99.90;;;;;;5005664;28;20464;-75
2023/12/27 04:29:38;;;;;;;1.13;0.40;;;7.00;99.90;;;;;;5015175;28;20451;-77
2023/12/27 04:32:07;;;;;;;0.70;0.33;;;7.00;99.90;;;;;;5048485;28;21040;-76
2023/12/27 04:34:34;;;;;;;1.07;0.30;;;7.10;99.90;;;;;;5021251;28;20469;-78
2023/12/27 04:37:01;;;;;;;0.50;0.30;;;7.20;99.90;;;;;;5010030;28;20465;-75
2023/12/27 04:39:28;;;;;;;0.50;0.30;;;7.10;99.90;;;;;;5011349;28;21125;-77
2023/12/27 04:41:55;;;;;;;1.70;0.40;;;7.20;99.90;;;;;;5005679;28;20505;-75
2023/12/27 04:44:23;;;;;;;3.37;0.50;;;7.20;99.90;;;;;;5005606;28;20460;-78
2023/12/27 04:46:50;;;;;;;2.00;0.30;;;7.30;99.90;;;;;;5019122;28;20841;-77
2023/12/27 04:49:17;;;;;;;1.50;0.40;;;7.30;99.90;;;;;;4995772;28;20468;-75
2023/12/27 04:51:46;;;;;;;0.93;0.30;;;7.30;99.90;;;;;;5008762;28;20585;-76
2023/12/27 04:54:13;;;;;;;1.07;0.20;;;7.30;99.90;;;;;;5018488;28;20477;-78
2023/12/27 04:56:40;;;;;;;0.50;0.27;;;7.30;99.90;;;;;;4998374;28;20545;-75
2023/12/27 04:59:07;;;;;;;0.60;0.30;;;7.30;99.90;;;;;;5015739;28;20958;-75
2023/12/27 05:01:35;;;;;;;1.33;0.30;;;7.30;99.90;;;;;;5004345;28;20529;-75
2023/12/27 05:04:02;;;;;;;0.40;0.20;;;7.30;99.90;;;;;;5025382;28;20448;-75
2023/12/27 05:06:29;;;;;;;0.53;0.30;;;7.30;99.90;;;;;;5002655;28;20468;-78
2023/12/27 05:08:57;;;;;;;0.57;0.40;;;7.30;99.90;;;;;;5004114;28;20527;-76
2023/12/27 05:11:23;;;;;;;0.40;0.30;;;7.30;99.90;;;;;;4999768;28;20491;-76
2023/12/27 05:13:50;;;;;;;0.50;0.20;;;7.30;99.90;;;;;;5003525;28;20556;-75
2023/12/27 05:16:19;;;;;;;2.03;0.40;;;7.20;99.90;;;;;;5004498;28;20975;-75
2023/12/27 05:18:48;;;;;;;0.40;0.30;;;7.20;99.90;;;;;;5000056;28;20472;-74
2023/12/27 05:21:19;;;;;;;0.40;0.30;;;7.30;99.90;;;;;;5005122;28;20518;-78
2023/12/27 05:23:46;;;;;;;0.63;0.50;;;7.30;99.90;;;;;;5008360;28;20480;-76
2023/12/27 05:26:13;;;;;;;0.43;0.40;;;7.30;99.90;;;;;;5008886;28;21046;-76
2023/12/27 05:28:40;;;;;;;0.60;0.40;;;7.20;99.90;;;;;;5029452;28;20529;-78
2023/12/27 05:31:07;;;;;;;0.60;0.40;;;7.20;99.90;;;;;;5021349;28;20577;-75
2023/12/27 05:33:34;;;;;;;1.10;0.30;;;7.30;99.90;;;;;;5006100;28;20471;-76
2023/12/27 05:36:03;;;;;;;0.50;0.40;;;7.30;99.90;;;;;;4995877;28;20474;-75
2023/12/27 05:38:30;;;;;;;0.40;0.30;;;7.30;99.90;;;;;;5005129;28;20551;-75
2023/12/27 05:40:57;;;;;;;0.43;0.30;;;7.30;99.90;;;;;;5008343;28;20850;-76
2023/12/27 05:43:24;;;;;;;0.50;0.30;;;7.20;99.90;;;;;;5013256;28;20488;-78
2023/12/27 05:45:51;;;;;;;0.50;0.30;;;7.30;99.90;;;;;;5007759;28;20498;-76
2023/12/27 05:48:18;;;;;;;0.50;0.30;;;7.20;99.90;;;;;;5003927;28;20573;-76
2023/12/27 05:50:45;;;;;;;2.73;0.30;;;7.20;99.90;;;;;;5019449;28;20496;-76
2023/12/27 05:53:13;;;;;;;1.40;0.50;;;7.30;99.90;;;;;;5009847;28;20446;-76
2023/12/27 05:55:40;;;;;;;1.27;0.40;;;7.20;99.90;;;;;;5023388;28;20530;-77
2023/12/27 05:58:07;;;;;;;0.50;0.40;;;7.20;99.90;;;;;;5021778;28;20463;-76
2023/12/27 06:00:34;;;;;;;0.50;0.40;;;7.10;99.90;;;;;;5005246;28;20464;-75
2023/12/27 06:03:01;;;;;;;1.07;0.30;;;7.00;99.90;;;;;;5005344;28;21062;-76
2023/12/27 06:05:28;;;;;;;0.60;0.40;;;7.00;99.90;;;;;;5048457;28;21227;-76
2023/12/27 06:07:55;;;;;;;0.67;0.30;;;7.00;99.90;;;;;;5023085;28;20462;-76
2023/12/27 06:10:26;;;;;;;0.80;0.70;;;7.00;99.90;;;;;;5029159;28;20462;-77
2023/12/27 06:12:53;;;;;;;1.37;0.30;;;7.00;99.90;;;;;;5016632;28;20466;-76
2023/12/27 06:15:20;;;;;;;0.50;0.30;;;7.00;99.90;;;;;;5002978;28;20554;-76
2023/12/27 06:17:47;;;;;;;1.17;0.40;;;7.00;99.90;;;;;;5000980;28;20536;-76
2023/12/27 06:20:13;;;;;;;1.03;0.40;;;7.00;99.90;;;;;;5006134;28;20499;-76
2023/12/27 06:22:42;;;;;;;0.40;0.33;;;6.90;99.90;;;;;;5015589;28;20476;-76
2023/12/27 06:25:09;;;;;;;0.93;0.70;;;6.90;99.90;;;;;;5052996;28;20463;-78
2023/12/27 06:27:38;;;;;;;37.77;21.33;;;6.90;99.90;;;;;;5029180;28;20545;-78
2023/12/27 06:30:06;;;;;;;1.10;0.70;;;6.90;99.90;;;;;;5022151;28;20553;-78
2023/12/27 06:32:33;;;;;;;0.87;0.70;;;6.90;99.90;;;;;;5017041;28;20558;-76
2023/12/27 06:35:00;;;;;;;0.60;0.50;;;6.90;99.90;;;;;;5030434;28;20467;-76
2023/12/27 06:37:27;;;;;;;1.00;0.77;;;6.90;99.90;;;;;;5029141;28;20933;-76
2023/12/27 06:39:53;;;;;;;2.70;0.50;;;6.90;99.90;;;;;;5014065;28;20525;-78
2023/12/27 06:42:21;;;;;;;0.67;0.47;;;6.80;99.90;;;;;;5004568;28;20493;-76
2023/12/27 06:44:50;;;;;;;0.50;0.30;;;6.80;99.90;;;;;;5021373;28;20469;-79
2023/12/27 06:47:17;;;;;;;2.10;0.40;;;6.80;99.90;;;;;;5021463;28;20891;-77
2023/12/27 06:49:46;;;;;;;0.50;0.47;;;6.80;99.90;;;;;;5024494;28;20957;-79
2023/12/27 06:52:13;;;;;;;0.67;0.40;;;6.70;99.90;;;;;;5060212;28;20482;-79
2023/12/27 06:54:40;;;;;;;1.10;0.40;;;6.70;99.90;;;;;;5016345;28;20472;-77
2023/12/27 06:57:07;;;;;;;0.97;0.50;;;6.60;99.90;;;;;;5015676;28;21033;-76
2023/12/27 06:59:34;;;;;;;0.60;0.50;;;6.70;99.90;;;;;;5014006;28;20476;-77
2023/12/27 07:02:04;;;;;;;0.53;0.53;;;6.60;99.90;;;;;;5005647;28;20501;-76
2023/12/27 07:04:31;;;;;;;0.60;0.50;;;6.70;99.90;;;;;;5030346;28;21000;-76
2023/12/27 07:06:58;;;;;;;0.53;0.40;;;6.70;99.90;;;;;;5021003;28;20464;-77
2023/12/27 07:09:25;;;;;;;0.87;0.50;;;6.80;99.90;;;;;;5003168;28;20488;-75
2023/12/27 07:11:52;;;;;;;1.53;0.77;;;6.80;99.90;;;;;;5014185;28;20896;-75
2023/12/27 07:14:19;;;;;;;1.40;1.00;;;6.70;99.90;;;;;;5009027;28;20521;-76
2023/12/27 07:16:46;;;;;;;2.30;1.20;;;6.70;99.90;;;;;;5008736;28;20921;-76
2023/12/27 07:19:14;;;;;;;1.53;0.90;;;6.60;99.90;;;;;;5012493;28;20549;-76
2023/12/27 07:21:41;;;;;;;1.20;0.60;;;6.60;99.90;;;;;;5022500;28;20452;-75
2023/12/27 07:24:08;;;;;;;1.93;1.07;;;6.70;99.90;;;;;;5015837;28;20466;-76
2023/12/27 07:26:35;;;;;;;2.70;0.90;;;6.70;99.90;;;;;;5012537;28;20458;-76
2023/12/27 07:29:02;;;;;;;1.63;0.80;;;6.70;99.90;;;;;;5019461;28;20952;-76
2023/12/27 07:31:29;;;;;;;2.43;0.90;;;6.70;99.90;;;;;;5011178;28;20484;-76
2023/12/27 07:33:56;;;;;;;1.37;0.70;;;6.80;99.90;;;;;;5005424;28;21062;-78
2023/12/27 07:36:24;;;;;;;1.17;0.73;;;6.80;99.90;;;;;;5005599;28;20473;-75
2023/12/27 07:38:51;;;;;;;1.73;1.00;;;6.80;99.90;;;;;;5031908;28;20525;-76
2023/12/27 07:41:19;;;;;;;1.57;0.83;;;6.80;99.90;;;;;;5049009;28;20450;-76
2023/12/27 07:43:46;;;;;;;1.20;1.10;;;6.80;99.90;;;;;;5039322;28;20466;-77
2023/12/27 07:46:13;;;;;;;1.63;0.80;;;6.80;99.90;;;;;;5026679;28;20469;-75
2023/12/27 07:48:39;;;;;;;2.23;1.00;;;6.80;99.90;;;;;;5016869;28;20464;-75
2023/12/27 07:51:09;;;;;;;1.70;0.80;;;6.80;99.90;;;;;;4997853;28;20991;-76
2023/12/27 07:53:37;;;;;;;1.43;1.10;;;6.90;99.90;;;;;;5018489;28;20459;-76
2023/12/27 07:56:09;;;;;;;1.10;0.80;;;6.90;99.90;;;;;;5003464;28;20978;-75
2023/12/27 07:58:36;;;;;;;0.90;0.60;;;7.00;99.90;;;;;;5021071;28;20468;-77
2023/12/27 08:01:03;;;;;;;1.83;0.90;;;7.10;99.90;;;;;;5025533;28;20448;-76
2023/12/27 08:03:30;;;;;;;1.27;0.80;;;7.20;99.90;;;;;;5023818;28;20453;-76
2023/12/27 08:05:57;;;;;;;1.30;0.80;;;7.30;99.90;;;;;;5015479;28;20477;-77
2023/12/27 08:08:25;;;;;;;0.80;0.60;;;7.30;99.90;;;;;;5037375;28;20473;-76
2023/12/27 08:10:53;;;;;;;1.07;0.77;;;7.40;99.90;;;;;;5015177;28;20521;-78
2023/12/27 08:13:20;;;;;;;1.03;0.60;;;7.30;99.90;;;;;;5015726;28;20574;-76
2023/12/27 08:15:47;;;;;;;3.73;0.50;;;7.40;99.90;;;;;;5014364;28;21140;-77
2023/12/27 08:18:15;;;;;;;1.43;0.77;;;7.40;99.90;;;;;;5031184;28;21073;-77
2023/12/27 08:20:42;;;;;;;1.23;0.80;;;7.30;99.90;;;;;;5016511;28;20488;-75
2023/12/27 08:23:09;;;;;;;1.53;0.80;;;7.20;99.90;;;;;;5018473;28;21048;-75
2023/12/27 08:25:37;;;;;;;1.20;0.70;;;7.30;99.90;;;;;;5055352;28;20522;-74
2023/12/27 08:28:08;;;;;;;3.43;0.87;;;7.30;99.90;;;;;;5015024;28;20458;-74
2023/12/27 08:30:35;;;;;;;0.83;0.80;;;7.30;99.90;;;;;;5024860;28;20468;-74
2023/12/27 08:33:03;;;;;;;2.50;1.47;;;7.30;99.90;;;;;;5006305;28;20490;-76
2023/12/27 08:35:30;;;;;;;1.40;1.17;;;7.40;99.90;;;;;;5005082;28;20449;-76
2023/12/27 08:37:57;;;;;;;1.33;1.23;;;7.40;99.90;;;;;;5001918;28;20470;-76
2023/12/27 08:40:24;;;;;;;2.80;1.37;;;7.50;99.90;;;;;;4999538;28;20985;-76
2023/12/27 08:42:51;;;;;;;1.40;1.30;;;7.60;99.90;;;;;;4989793;28;20479;-75
2023/12/27 08:45:19;;;;;;;7.03;4.30;;;7.80;99.90;;;;;;5002530;28;20546;-77
2023/12/27 08:47:46;;;;;;;7.17;2.80;;;7.80;99.90;;;;;;4996830;28;20498;-76
2023/12/27 08:50:14;;;;;;;5.10;1.20;;;7.80;99.90;;;;;;5003449;28;20464;-74
2023/12/27 08:52:40;;;;;;;1.93;1.67;;;7.90;99.90;;;;;;5003392;28;20976;-76
2023/12/27 08:55:10;;;;;;;2.10;1.43;;;7.80;99.90;;;;;;5001975;28;20588;-74
2023/12/27 08:57:37;;;;;;;1.60;1.50;;;7.80;99.90;;;;;;5001247;28;21070;-74
2023/12/27 09:00:07;;;;;;;2.00;1.90;;;7.80;99.90;;;;;;5004530;28;20866;-77
2023/12/27 09:02:36;;;;;;;2.80;2.40;;;7.90;99.90;;;;;;5048075;28;20502;-76
2023/12/27 09:05:03;;;;;;;3.67;1.73;;;7.90;99.90;;;;;;5003345;28;20556;-73
2023/12/27 09:07:31;;;;;;;1.40;1.30;;;8.00;99.90;;;;;;5029589;28;20555;-74
2023/12/27 09:09:58;;;;;;;1.83;1.40;;;8.10;99.90;;;;;;5016333;28;20966;-75
2023/12/27 09:12:25;;;;;;;6.10;2.03;;;8.50;99.90;;;;;;5045763;28;20490;-75
2023/12/27 09:14:52;;;;;;;1.60;1.33;;;9.20;99.90;;;;;;5006009;28;20502;-75
2023/12/27 09:17:19;;;;;;;2.03;1.70;;;9.00;99.90;;;;;;4997995;28;20551;-75
2023/12/27 09:19:47;;;;;;;1.60;1.13;;;8.80;99.90;;;;;;5027183;28;20506;-75
2023/12/27 09:22:14;;;;;;;1.67;1.03;;;8.80;99.90;;;;;;5042619;28;20904;-74
2023/12/27 09:24:42;;;;;;;1.10;0.93;;;8.70;99.90;;;;;;5046663;28;20507;-74
2023/12/27 09:27:12;;;;;;;3.80;1.20;;;8.50;99.90;;;;;;5009838;28;20502;-74
2023/12/27 09:29:39;;;;;;;3.83;1.50;;;8.60;99.90;;;;;;5011053;28;20519;-78
2023/12/27 09:32:06;;;;;;;2.13;1.40;;;8.30;99.90;;;;;;5011360;28;20493;-77
2023/12/27 09:34:33;;;;;;;3.93;2.07;;;8.20;99.90;;;;;;5017093;28;20473;-75
2023/12/27 09:37:03;;;;;;;2.13;1.60;;;8.20;99.90;;;;;;5010365;28;20497;-74
2023/12/27 09:39:30;;;;;;;1.53;1.13;;;8.20;99.90;;;;;;5055461;28;21792;-78
2023/12/27 09:41:57;;;;;;;1.93;1.57;;;8.20;99.90;;;;;;5001348;28;20506;-74
2023/12/27 09:44:24;;;;;;;1.23;1.10;;;8.30;99.90;;;;;;5030656;28;21294;-74
2023/12/27 09:46:51;;;;;;;2.50;1.00;;;8.30;99.90;;;;;;5028031;28;20546;-75
2023/12/27 09:49:20;;;;;;;1.50;0.77;;;8.30;99.90;;;;;;5015315;28;20555;-76
2023/12/27 09:51:48;;;;;;;0.80;0.80;;;8.30;99.90;;;;;;5020007;28;20464;-75
2023/12/27 09:54:17;;;;;;;0.60;0.60;;;8.40;99.90;;;;;;5015347;28;20497;-76
2023/12/27 09:56:45;;;;;;;2.40;0.70;;;8.40;99.90;;;;;;5028096;28;20487;-76
2023/12/27 09:59:19;;;;;;;0.90;0.73;;;8.40;99.90;;;;;;5005246;28;20473;-75
2023/12/27 10:01:50;;;;;;;2.23;0.87;;;8.50;99.90;;;;;;5001968;28;21003;-76
2023/12/27 10:04:25;;;;;;;1.50;1.07;;;8.60;99.90;;;;;;5017005;28;20523;-75
2023/12/27 10:06:52;;;;;;;1.30;0.87;;;8.70;99.90;;;;;;5000084;28;20465;-75
2023/12/27 10:09:21;;;;;;;1.23;0.93;;;8.70;99.90;;;;;;4999240;28;20554;-75
2023/12/27 10:11:48;;;;;;;0.70;0.70;;;8.80;99.90;;;;;;5002909;28;20462;-74
2023/12/27 10:14:17;;;;;;;1.37;0.90;;;8.80;99.90;;;;;;5001941;28;20550;-75
2023/12/27 10:16:44;;;;;;;0.80;0.63;;;8.70;99.90;;;;;;5013952;28;20529;-78
2023/12/27 10:19:37;;;;;;;1.50;1.40;;;8.70;99.90;;;;;;5004096;28;20469;-77
2023/12/27 10:22:04;;;;;;;1.83;0.80;;;8.70;99.90;;;;;;5001250;28;21040;-76
2023/12/27 10:24:34;;;;;;;3.17;1.30;;;8.80;99.90;;;;;;5018718;28;21072;-75
2023/12/27 10:27:01;;;;;;;1.50;1.40;;;8.70;99.90;;;;;;5000500;28;20474;-76
2023/12/27 10:29:28;;;;;;;1.53;1.10;;;8.70;99.90;;;;;;5008321;28;21440;-77
2023/12/27 10:31:55;;;;;;;2.97;2.67;;;8.80;99.90;;;;;;4999594;28;20479;-77
2023/12/27 10:34:22;;;;;;;5.03;4.63;;;8.80;99.90;;;;;;5017105;28;20551;-76
2023/12/27 10:36:51;;;;;;;9.30;8.50;;;8.80;99.90;;;;;;5028346;28;20475;-76
2023/12/27 10:39:18;;;;;;;5.80;5.27;;;8.80;99.90;;;;;;5059057;28;20511;-76
2023/12/27 10:41:46;;;;;;;1.73;1.30;;;8.90;99.90;;;;;;5000835;28;20464;-76
2023/12/27 10:44:17;;;;;;;1.40;1.30;;;8.80;99.90;;;;;;5006624;28;20476;-78
2023/12/27 10:46:44;;;;;;;1.43;1.33;;;8.80;99.90;;;;;;4999321;28;20947;-76
2023/12/27 10:49:14;;;;;;;2.10;2.00;;;8.80;99.90;;;;;;5031772;28;20463;-76
2023/12/27 10:51:42;;;;;;;0.90;0.90;;;8.80;99.90;;;;;;5001151;28;20493;-76
2023/12/27 10:54:11;;;;;;;1.57;1.20;;;8.80;99.90;;;;;;5011851;28;20577;-79
2023/12/27 10:56:39;;;;;;;2.50;1.73;;;8.80;99.90;;;;;;5010470;28;20469;-78
2023/12/27 10:59:09;;;;;;;1.57;1.23;;;8.90;99.90;;;;;;5033177;28;20955;-74
2023/12/27 11:01:38;;;;;;;1.53;1.30;;;8.90;99.90;;;;;;5046713;28;20536;-76
2023/12/27 11:04:08;;;;;;;2.20;1.87;;;8.90;99.90;;;;;;5037343;28;20506;-76
2023/12/27 11:06:37;;;;;;;3.73;2.53;;;9.00;99.90;;;;;;5002741;28;20566;-76
2023/12/27 11:09:07;;;;;;;3.77;2.60;;;9.00;99.90;;;;;;5009892;28;20549;-75
2023/12/27 11:11:37;;;;;;;3.23;2.20;;;9.00;99.90;;;;;;5000007;28;20969;-76
2023/12/27 11:14:05;;;;;;;1.47;1.13;;;9.10;99.90;;;;;;5043099;28;20580;-75
2023/12/27 11:16:37;;;;;;;2.43;1.73;;;9.20;99.90;;;;;;5011838;28;20532;-75
2023/12/27 11:19:05;;;;;;;2.27;0.97;;;9.20;99.90;;;;;;5046272;28;20466;-76
2023/12/27 11:21:33;;;;;;;3.23;1.07;;;9.20;99.90;;;;;;5004681;28;20501;-76
2023/12/27 11:24:00;;;;;;;3.90;0.97;;;9.10;99.90;;;;;;5006739;28;20471;-76
2023/12/27 11:26:27;;;;;;;1.03;1.00;;;9.00;99.90;;;;;;5009587;28;21010;-75
2023/12/27 11:28:55;;;;;;;1.67;1.23;;;9.10;99.90;;;;;;5037715;28;20487;-77
2023/12/27 11:31:22;;;;;;;2.10;1.40;;;9.30;99.90;;;;;;5014037;28;20472;-75
2023/12/27 11:33:51;;;;;;;2.17;1.50;;;9.30;99.90;;;;;;5054208;28;20529;-78
2023/12/27 11:36:20;;;;;;;1.50;1.30;;;9.50;99.90;;;;;;5058357;28;20523;-77
2023/12/27 11:38:47;;;;;;;1.33;1.23;;;9.40;99.90;;;;;;5017430;28;20516;-75
2023/12/27 11:41:14;;;;;;;1.83;0.80;;;9.30;99.90;;;;;;5028252;28;20474;-76
2023/12/27 11:43:53;;;;;;;1.23;1.13;;;9.30;99.90;;;;;;5048039;28;20452;-75
2023/12/27 11:46:30;;;;;;;1.63;0.90;;;9.30;99.90;;;;;;5024000;28;21144;-78
2023/12/27 11:48:59;;;;;;;4.23;0.97;;;9.40;99.90;;;;;;5002372;28;20557;-74
2023/12/27 11:51:29;;;;;;;3.13;1.37;;;9.50;99.90;;;;;;5018185;28;20891;-77
2023/12/27 11:53:56;;;;;;;2.23;1.20;;;9.40;99.90;;;;;;5026816;28;20482;-79
2023/12/27 11:56:23;;;;;;;1.47;1.03;;;9.30;99.90;;;;;;5003260;28;20522;-77
2023/12/27 11:58:51;;;;;;;4.23;1.97;;;9.40;99.90;;;;;;5041917;28;21110;-77
2023/12/27 12:01:24;;;;;;;1.10;1.00;;;9.30;99.90;;;;;;5012297;28;20559;-78
2023/12/27 12:04:10;;;;;;;1.63;1.30;;;9.30;99.90;;;;;;5017940;28;20568;-77
2023/12/27 12:07:11;;;;;;;1.70;1.13;;;9.40;99.90;;;;;;5033156;28;20517;-75
2023/12/27 12:09:42;;;;;;;2.43;0.83;;;9.50;99.90;;;;;;5024551;28;20455;-77
2023/12/27 12:12:11;;;;;;;1.70;0.90;;;9.50;99.90;;;;;;5029092;28;20461;-74
2023/12/27 12:14:40;;;;;;;0.90;0.80;;;9.60;99.90;;;;;;5007954;28;21065;-77
2023/12/27 12:17:08;;;;;;;7.10;1.03;;;9.50;99.90;;;;;;5008987;28;20487;-74
2023/12/27 12:19:36;;;;;;;1.10;1.00;;;9.60;99.90;;;;;;5036836;28;20568;-77
2023/12/27 12:22:04;;;;;;;1.30;1.00;;;9.60;99.90;;;;;;5009195;28;20525;-74
2023/12/27 12:24:32;;;;;;;0.80;0.70;;;9.60;99.90;;;;;;5004376;28;20500;-74
2023/12/27 12:26:59;;;;;;;2.03;1.00;;;9.70;99.90;;;;;;5000849;28;20499;-74
2023/12/27 12:29:27;;;;;;;1.37;0.97;;;9.90;99.90;;;;;;5006146;28;20519;-74
2023/12/27 12:31:55;;;;;;;1.30;0.90;;;9.80;99.90;;;;;;5005338;28;20470;-76
2023/12/27 12:34:22;;;;;;;0.90;0.70;;;9.70;99.90;;;;;;5003887;28;20580;-74
2023/12/27 12:36:50;;;;;;;0.93;0.80;;;9.80;99.90;;;;;;5003315;28;20469;-74
2023/12/27 12:39:19;;;;;;;6.00;0.70;;;9.80;99.90;;;;;;5002616;28;20477;-74
2023/12/27 12:41:46;;;;;;;1.50;1.27;;;9.80;99.90;;;;;;5003141;28;20470;-74
2023/12/27 12:44:13;;;;;;;1.03;0.93;;;9.70;99.90;;;;;;5006191;28;20463;-74
2023/12/27 12:46:41;;;;;;;1.37;0.87;;;9.70;99.90;;;;;;5001935;28;20524;-74
2023/12/27 12:49:09;;;;;;;1.83;0.80;;;9.60;99.90;;;;;;5012501;28;20529;-74
2023/12/27 12:51:37;;;;;;;2.00;1.27;;;9.80;99.90;;;;;;5056906;28;21322;-76
2023/12/27 12:54:07;;;;;;;2.10;1.13;;;9.80;99.90;;;;;;5031029;28;20930;-74
2023/12/27 12:56:39;;;;;;;3.63;1.20;;;9.80;99.90;;;;;;5011390;28;21077;-76
2023/12/27 12:59:06;;;;;;;1.60;1.00;;;9.80;99.90;;;;;;5024642;28;21033;-74
2023/12/27 13:01:34;;;;;;;0.87;0.87;;;9.80;99.90;;;;;;4996533;28;20459;-74